Statia Star — IIXA2 — position and weather

sailwx.info

Track history (hours):
 
Tides and Currents Weather Stations Pressure Air Temp Water Temp Dewpoint Dewpoint Depression Visibility Wind Speed Wind Dir Waves Ship Positions

Statia Star

Last reported at 2015-Aug-28 02:32 UTC. Time now 2015-Aug-28 14:48 UTC.
Position N 16°51' W 062°17'.

Length 32 m; draft 5.5 m.

Type: Other ship. MMSI: 247288500.

Date/timePositionNaut miles runAvg speedWind from/ knotsBaromVisibWave heightAir tempDewpointWater temp
2015-Aug-28 02:32N 16°51' W 062°17'4 4.2
2015-Aug-28 01:33N 16°49' W 062°13'3 3.2
2015-Aug-28 00:34N 16°46' W 062°14'2 1.0
2015-Aug-27 22:10N 16°49' W 062°15'1 0.9
2015-Aug-27 21:33N 16°49' W 062°14'0 0.1
2015-Aug-27 19:11N 16°49' W 062°14'2 2.6
2015-Aug-27 18:33N 16°47' W 062°14'1 0.5
2015-Aug-27 16:30N 16°48' W 062°14'0 0.2
2015-Aug-27 15:33N 16°48' W 062°14'3 2.9
2015-Aug-27 14:33N 16°46' W 062°16'2 2.4
2015-Aug-27 13:33N 16°44' W 062°17'  
Track history (hours):
 
Tides and Currents Weather Stations Pressure Air Temp Water Temp Dewpoint Dewpoint Depression Visibility Wind Speed Wind Dir Waves Ship Positions

Statia Star

Last reported at 2015-Aug-28 02:32 UTC. Time now 2015-Aug-28 14:48 UTC.
Position N 16°51' W 062°17'.

Length 32 m; draft 5.5 m.

Type: Other ship. MMSI: 247288500.

Date/timePositionNaut miles runAvg speedWind from/ knotsBaromVisibWave heightAir tempDewpointWater temp
2015-Aug-28 02:32N 16°51' W 062°17'4 4.2
2015-Aug-28 01:33N 16°49' W 062°13'3 3.2
2015-Aug-28 00:34N 16°46' W 062°14'2 1.0
2015-Aug-27 22:10N 16°49' W 062°15'1 0.9
2015-Aug-27 21:33N 16°49' W 062°14'0 0.1
2015-Aug-27 19:11N 16°49' W 062°14'2 2.6
2015-Aug-27 18:33N 16°47' W 062°14'1 0.5
2015-Aug-27 16:30N 16°48' W 062°14'0 0.2
2015-Aug-27 15:33N 16°48' W 062°14'3 2.9
2015-Aug-27 14:33N 16°46' W 062°16'2 2.4
2015-Aug-27 13:33N 16°44' W 062°17'  

Dump ship's entire track history